sensor_id;sensor_type;location;lat;lon;timestamp;P1;durP1;ratioP1;P2;durP2;ratioP2
37091;SDS011;23005;51.998;4.502;2023-04-03T00:01:06;5.43;;;2.30;;
37091;SDS011;23005;51.998;4.502;2023-04-03T00:02:27;8.02;;;2.40;;
37091;SDS011;23005;51.998;4.502;2023-04-03T00:03:47;7.25;;;2.50;;
37091;SDS011;23005;51.998;4.502;2023-04-03T00:05:08;7.38;;;1.92;;
37091;SDS011;23005;51.998;4.502;2023-04-03T00:06:29;3.78;;;2.15;;
37091;SDS011;23005;51.998;4.502;2023-04-03T00:07:50;5.40;;;2.20;;
37091;SDS011;23005;51.998;4.502;2023-04-03T00:09:12;6.20;;;2.05;;
37091;SDS011;23005;51.998;4.502;2023-04-03T00:10:33;7.50;;;2.40;;
37091;SDS011;23005;51.998;4.502;2023-04-03T00:11:54;4.50;;;2.35;;
37091;SDS011;23005;51.998;4.502;2023-04-03T00:13:15;3.80;;;2.20;;
37091;SDS011;23005;51.998;4.502;2023-04-03T00:14:36;6.05;;;2.42;;
37091;SDS011;23005;51.998;4.502;2023-04-03T00:15:57;3.10;;;1.77;;
37091;SDS011;23005;51.998;4.502;2023-04-03T00:17:18;5.43;;;2.25;;
37091;SDS011;23005;51.998;4.502;2023-04-03T00:18:39;4.68;;;2.00;;
37091;SDS011;23005;51.998;4.502;2023-04-03T00:21:20;5.22;;;2.53;;
37091;SDS011;23005;51.998;4.502;2023-04-03T00:22:41;7.13;;;2.75;;
37091;SDS011;23005;51.998;4.502;2023-04-03T00:24:02;6.07;;;2.92;;
37091;SDS011;23005;51.998;4.502;2023-04-03T00:25:23;2.92;;;2.00;;
37091;SDS011;23005;51.998;4.502;2023-04-03T00:26:44;4.95;;;1.98;;
37091;SDS011;23005;51.998;4.502;2023-04-03T00:28:05;5.00;;;2.28;;
37091;SDS011;23005;51.998;4.502;2023-04-03T00:29:26;6.93;;;2.95;;
37091;SDS011;23005;51.998;4.502;2023-04-03T00:30:48;6.55;;;2.40;;
37091;SDS011;23005;51.998;4.502;2023-04-03T00:32:08;6.22;;;2.20;;
37091;SDS011;23005;51.998;4.502;2023-04-03T00:33:29;5.30;;;2.30;;
37091;SDS011;23005;51.998;4.502;2023-04-03T00:34:50;5.60;;;2.45;;
37091;SDS011;23005;51.998;4.502;2023-04-03T00:36:11;6.37;;;2.63;;
37091;SDS011;23005;51.998;4.502;2023-04-03T00:37:33;4.97;;;2.65;;
37091;SDS011;23005;51.998;4.502;2023-04-03T00:38:53;5.32;;;2.42;;
37091;SDS011;23005;51.998;4.502;2023-04-03T00:40:14;6.93;;;2.90;;
37091;SDS011;23005;51.998;4.502;2023-04-03T00:41:36;5.13;;;2.35;;
37091;SDS011;23005;51.998;4.502;2023-04-03T00:42:58;7.05;;;2.25;;
37091;SDS011;23005;51.998;4.502;2023-04-03T00:44:20;6.03;;;2.50;;
37091;SDS011;23005;51.998;4.502;2023-04-03T00:45:42;8.30;;;2.58;;
37091;SDS011;23005;51.998;4.502;2023-04-03T00:47:05;6.35;;;2.25;;
37091;SDS011;23005;51.998;4.502;2023-04-03T00:48:29;8.43;;;2.30;;
37091;SDS011;23005;51.998;4.502;2023-04-03T00:49:52;6.07;;;2.30;;
37091;SDS011;23005;51.998;4.502;2023-04-03T00:51:14;3.50;;;2.20;;
37091;SDS011;23005;51.998;4.502;2023-04-03T00:52:36;6.13;;;2.35;;
37091;SDS011;23005;51.998;4.502;2023-04-03T00:53:58;7.00;;;2.50;;
37091;SDS011;23005;51.998;4.502;2023-04-03T00:55:20;5.93;;;2.60;;
37091;SDS011;23005;51.998;4.502;2023-04-03T00:56:42;3.90;;;2.45;;
37091;SDS011;23005;51.998;4.502;2023-04-03T00:58:03;4.95;;;2.17;;
37091;SDS011;23005;51.998;4.502;2023-04-03T00:59:25;5.68;;;2.40;;
37091;SDS011;23005;51.998;4.502;2023-04-03T01:00:50;4.97;;;2.15;;
37091;SDS011;23005;51.998;4.502;2023-04-03T01:02:14;3.95;;;2.00;;
37091;SDS011;23005;51.998;4.502;2023-04-03T01:03:35;4.65;;;2.08;;
37091;SDS011;23005;51.998;4.502;2023-04-03T01:04:55;3.03;;;1.70;;
37091;SDS011;23005;51.998;4.502;2023-04-03T01:06:16;7.43;;;2.40;;
37091;SDS011;23005;51.998;4.502;2023-04-03T01:07:40;5.10;;;2.10;;
37091;SDS011;23005;51.998;4.502;2023-04-03T01:09:01;7.15;;;2.45;;
37091;SDS011;23005;51.998;4.502;2023-04-03T01:10:23;6.55;;;2.65;;
37091;SDS011;23005;51.998;4.502;2023-04-03T01:11:45;6.65;;;2.17;;
37091;SDS011;23005;51.998;4.502;2023-04-03T01:13:17;4.93;;;2.00;;
37091;SDS011;23005;51.998;4.502;2023-04-03T01:15:48;5.65;;;2.03;;
37091;SDS011;23005;51.998;4.502;2023-04-03T01:17:24;5.60;;;2.60;;
37091;SDS011;23005;51.998;4.502;2023-04-03T01:18:49;7.75;;;2.53;;
37091;SDS011;23005;51.998;4.502;2023-04-03T01:20:18;11.98;;;2.70;;
37091;SDS011;23005;51.998;4.502;2023-04-03T01:22:15;5.47;;;2.22;;
37091;SDS011;23005;51.998;4.502;2023-04-03T01:24:59;7.65;;;2.33;;
37091;SDS011;23005;51.998;4.502;2023-04-03T01:26:20;5.72;;;2.30;;
37091;SDS011;23005;51.998;4.502;2023-04-03T01:27:42;4.95;;;1.77;;
37091;SDS011;23005;51.998;4.502;2023-04-03T01:29:03;8.13;;;2.30;;
37091;SDS011;23005;51.998;4.502;2023-04-03T01:30:25;6.95;;;2.35;;
37091;SDS011;23005;51.998;4.502;2023-04-03T01:31:52;5.13;;;2.55;;
37091;SDS011;23005;51.998;4.502;2023-04-03T01:33:13;5.78;;;2.60;;
37091;SDS011;23005;51.998;4.502;2023-04-03T01:34:34;6.05;;;2.42;;
37091;SDS011;23005;51.998;4.502;2023-04-03T01:35:55;3.67;;;2.05;;
37091;SDS011;23005;51.998;4.502;2023-04-03T01:37:15;7.43;;;2.50;;
37091;SDS011;23005;51.998;4.502;2023-04-03T01:38:36;7.43;;;2.55;;
37091;SDS011;23005;51.998;4.502;2023-04-03T01:39:56;4.57;;;2.10;;
37091;SDS011;23005;51.998;4.502;2023-04-03T01:41:17;8.23;;;2.53;;
37091;SDS011;23005;51.998;4.502;2023-04-03T01:42:37;7.20;;;2.10;;
37091;SDS011;23005;51.998;4.502;2023-04-03T01:43:58;7.40;;;2.20;;
37091;SDS011;23005;51.998;4.502;2023-04-03T01:45:19;5.72;;;2.35;;
37091;SDS011;23005;51.998;4.502;2023-04-03T01:46:39;4.13;;;1.90;;
37091;SDS011;23005;51.998;4.502;2023-04-03T01:48:02;5.55;;;2.10;;
37091;SDS011;23005;51.998;4.502;2023-04-03T01:49:23;5.22;;;2.40;;
37091;SDS011;23005;51.998;4.502;2023-04-03T01:50:44;8.25;;;2.45;;
37091;SDS011;23005;51.998;4.502;2023-04-03T01:52:04;6.53;;;2.63;;
37091;SDS011;23005;51.998;4.502;2023-04-03T01:53:25;8.60;;;2.25;;
37091;SDS011;23005;51.998;4.502;2023-04-03T01:54:46;5.20;;;2.45;;
37091;SDS011;23005;51.998;4.502;2023-04-03T01:56:07;6.00;;;2.38;;
37091;SDS011;23005;51.998;4.502;2023-04-03T01:57:27;5.07;;;2.30;;
37091;SDS011;23005;51.998;4.502;2023-04-03T01:58:48;4.15;;;2.30;;
37091;SDS011;23005;51.998;4.502;2023-04-03T02:00:09;5.63;;;2.33;;
37091;SDS011;23005;51.998;4.502;2023-04-03T02:01:30;3.92;;;2.28;;
37091;SDS011;23005;51.998;4.502;2023-04-03T02:02:51;8.45;;;2.50;;
37091;SDS011;23005;51.998;4.502;2023-04-03T02:04:13;8.55;;;2.88;;
37091;SDS011;23005;51.998;4.502;2023-04-03T02:05:34;9.50;;;2.65;;
37091;SDS011;23005;51.998;4.502;2023-04-03T02:06:54;4.90;;;2.03;;
37091;SDS011;23005;51.998;4.502;2023-04-03T02:08:15;5.30;;;2.50;;
37091;SDS011;23005;51.998;4.502;2023-04-03T02:09:36;7.45;;;2.42;;
37091;SDS011;23005;51.998;4.502;2023-04-03T02:10:57;5.32;;;2.30;;
37091;SDS011;23005;51.998;4.502;2023-04-03T02:12:17;6.28;;;2.50;;
37091;SDS011;23005;51.998;4.502;2023-04-03T02:15:00;7.40;;;2.83;;
37091;SDS011;23005;51.998;4.502;2023-04-03T02:16:21;9.30;;;2.80;;
37091;SDS011;23005;51.998;4.502;2023-04-03T02:17:41;6.20;;;2.35;;
37091;SDS011;23005;51.998;4.502;2023-04-03T02:19:02;7.57;;;2.65;;
37091;SDS011;23005;51.998;4.502;2023-04-03T02:20:25;6.18;;;2.50;;
37091;SDS011;23005;51.998;4.502;2023-04-03T02:21:45;7.32;;;2.88;;
37091;SDS011;23005;51.998;4.502;2023-04-03T02:23:06;6.15;;;2.40;;
37091;SDS011;23005;51.998;4.502;2023-04-03T02:25:37;4.10;;;1.98;;
37091;SDS011;23005;51.998;4.502;2023-04-03T02:26:57;5.60;;;2.65;;
37091;SDS011;23005;51.998;4.502;2023-04-03T02:28:18;6.77;;;2.73;;
37091;SDS011;23005;51.998;4.502;2023-04-03T02:29:39;6.10;;;2.63;;
37091;SDS011;23005;51.998;4.502;2023-04-03T02:30:59;7.10;;;2.47;;
37091;SDS011;23005;51.998;4.502;2023-04-03T02:32:20;9.45;;;2.78;;
37091;SDS011;23005;51.998;4.502;2023-04-03T02:33:41;6.53;;;2.88;;
37091;SDS011;23005;51.998;4.502;2023-04-03T02:35:02;8.85;;;2.92;;
37091;SDS011;23005;51.998;4.502;2023-04-03T02:36:25;5.13;;;2.38;;
37091;SDS011;23005;51.998;4.502;2023-04-03T02:37:45;4.45;;;2.47;;
37091;SDS011;23005;51.998;4.502;2023-04-03T02:39:06;4.93;;;2.70;;
37091;SDS011;23005;51.998;4.502;2023-04-03T02:40:27;4.97;;;2.30;;
37091;SDS011;23005;51.998;4.502;2023-04-03T02:41:47;6.10;;;2.67;;
37091;SDS011;23005;51.998;4.502;2023-04-03T02:43:08;4.57;;;2.47;;
37091;SDS011;23005;51.998;4.502;2023-04-03T02:44:28;4.80;;;2.33;;
37091;SDS011;23005;51.998;4.502;2023-04-03T02:45:49;8.38;;;2.90;;
37091;SDS011;23005;51.998;4.502;2023-04-03T02:47:10;7.63;;;2.40;;
37091;SDS011;23005;51.998;4.502;2023-04-03T02:48:31;9.23;;;2.83;;
37091;SDS011;23005;51.998;4.502;2023-04-03T02:49:51;6.38;;;2.40;;
37091;SDS011;23005;51.998;4.502;2023-04-03T02:51:12;6.72;;;2.72;;
37091;SDS011;23005;51.998;4.502;2023-04-03T02:52:34;5.88;;;2.67;;
37091;SDS011;23005;51.998;4.502;2023-04-03T02:53:55;5.80;;;2.65;;
37091;SDS011;23005;51.998;4.502;2023-04-03T02:55:14;8.98;;;3.28;;
37091;SDS011;23005;51.998;4.502;2023-04-03T02:56:35;4.95;;;2.45;;
37091;SDS011;23005;51.998;4.502;2023-04-03T02:57:56;6.72;;;3.10;;
37091;SDS011;23005;51.998;4.502;2023-04-03T02:59:17;8.45;;;2.78;;
37091;SDS011;23005;51.998;4.502;2023-04-03T03:00:37;7.45;;;2.92;;
37091;SDS011;23005;51.998;4.502;2023-04-03T03:01:58;8.68;;;2.60;;
37091;SDS011;23005;51.998;4.502;2023-04-03T03:03:19;4.88;;;2.80;;
37091;SDS011;23005;51.998;4.502;2023-04-03T03:04:40;4.57;;;2.35;;
37091;SDS011;23005;51.998;4.502;2023-04-03T03:06:02;6.53;;;3.05;;
37091;SDS011;23005;51.998;4.502;2023-04-03T03:07:23;9.05;;;3.95;;
37091;SDS011;23005;51.998;4.502;2023-04-03T03:08:45;6.47;;;3.00;;
37091;SDS011;23005;51.998;4.502;2023-04-03T03:10:06;7.22;;;3.13;;
37091;SDS011;23005;51.998;4.502;2023-04-03T03:11:27;6.65;;;3.15;;
37091;SDS011;23005;51.998;4.502;2023-04-03T03:12:48;5.78;;;2.83;;
37091;SDS011;23005;51.998;4.502;2023-04-03T03:14:09;5.90;;;2.83;;
37091;SDS011;23005;51.998;4.502;2023-04-03T03:15:30;6.55;;;2.38;;
37091;SDS011;23005;51.998;4.502;2023-04-03T03:16:51;5.32;;;2.97;;
37091;SDS011;23005;51.998;4.502;2023-04-03T03:18:11;12.10;;;3.33;;
37091;SDS011;23005;51.998;4.502;2023-04-03T03:19:32;5.53;;;2.63;;
37091;SDS011;23005;51.998;4.502;2023-04-03T03:20:53;7.00;;;3.28;;
37091;SDS011;23005;51.998;4.502;2023-04-03T03:22:13;7.15;;;2.92;;
37091;SDS011;23005;51.998;4.502;2023-04-03T03:23:34;6.07;;;3.17;;
37091;SDS011;23005;51.998;4.502;2023-04-03T03:24:56;6.15;;;2.55;;
37091;SDS011;23005;51.998;4.502;2023-04-03T03:26:17;5.68;;;2.60;;
37091;SDS011;23005;51.998;4.502;2023-04-03T03:27:38;8.73;;;3.10;;
37091;SDS011;23005;51.998;4.502;2023-04-03T03:28:58;7.85;;;3.10;;
37091;SDS011;23005;51.998;4.502;2023-04-03T03:30:19;9.23;;;3.47;;
37091;SDS011;23005;51.998;4.502;2023-04-03T03:31:40;9.07;;;3.20;;
37091;SDS011;23005;51.998;4.502;2023-04-03T03:33:01;9.77;;;3.07;;
37091;SDS011;23005;51.998;4.502;2023-04-03T03:34:22;7.25;;;2.80;;
37091;SDS011;23005;51.998;4.502;2023-04-03T03:35:42;7.18;;;3.38;;
37091;SDS011;23005;51.998;4.502;2023-04-03T03:37:03;7.97;;;2.97;;
37091;SDS011;23005;51.998;4.502;2023-04-03T03:38:24;6.15;;;3.13;;
37091;SDS011;23005;51.998;4.502;2023-04-03T03:39:45;9.30;;;2.97;;
37091;SDS011;23005;51.998;4.502;2023-04-03T03:41:07;10.45;;;3.42;;
37091;SDS011;23005;51.998;4.502;2023-04-03T03:42:27;10.20;;;3.38;;
37091;SDS011;23005;51.998;4.502;2023-04-03T03:43:48;7.65;;;2.85;;
37091;SDS011;23005;51.998;4.502;2023-04-03T03:45:21;11.30;;;3.20;;
37091;SDS011;23005;51.998;4.502;2023-04-03T03:46:41;6.53;;;2.90;;
37091;SDS011;23005;51.998;4.502;2023-04-03T03:48:01;8.27;;;3.28;;
37091;SDS011;23005;51.998;4.502;2023-04-03T03:49:22;6.15;;;2.97;;
37091;SDS011;23005;51.998;4.502;2023-04-03T03:50:43;6.20;;;3.13;;
37091;SDS011;23005;51.998;4.502;2023-04-03T03:52:04;9.05;;;3.72;;
37091;SDS011;23005;51.998;4.502;2023-04-03T03:53:25;9.50;;;3.17;;
37091;SDS011;23005;51.998;4.502;2023-04-03T03:55:58;7.38;;;2.67;;
37091;SDS011;23005;51.998;4.502;2023-04-03T03:57:19;5.85;;;2.90;;
37091;SDS011;23005;51.998;4.502;2023-04-03T03:58:40;5.72;;;3.17;;
37091;SDS011;23005;51.998;4.502;2023-04-03T04:00:01;7.47;;;3.28;;
37091;SDS011;23005;51.998;4.502;2023-04-03T04:01:21;7.15;;;2.83;;
37091;SDS011;23005;51.998;4.502;2023-04-03T04:02:42;10.37;;;3.40;;
37091;SDS011;23005;51.998;4.502;2023-04-03T04:04:03;7.05;;;2.83;;
37091;SDS011;23005;51.998;4.502;2023-04-03T04:05:19;9.15;;;3.20;;
37091;SDS011;23005;51.998;4.502;2023-04-03T04:06:40;8.15;;;3.15;;
37091;SDS011;23005;51.998;4.502;2023-04-03T04:08:01;7.75;;;2.90;;
37091;SDS011;23005;51.998;4.502;2023-04-03T04:09:21;6.32;;;3.60;;
37091;SDS011;23005;51.998;4.502;2023-04-03T04:10:42;7.30;;;3.22;;
37091;SDS011;23005;51.998;4.502;2023-04-03T04:12:03;8.35;;;3.38;;
37091;SDS011;23005;51.998;4.502;2023-04-03T04:13:25;9.35;;;3.28;;
37091;SDS011;23005;51.998;4.502;2023-04-03T04:14:41;10.70;;;3.20;;
37091;SDS011;23005;51.998;4.502;2023-04-03T04:16:02;11.23;;;3.45;;
37091;SDS011;23005;51.998;4.502;2023-04-03T04:17:23;8.63;;;3.30;;
37091;SDS011;23005;51.998;4.502;2023-04-03T04:18:44;8.50;;;3.22;;
37091;SDS011;23005;51.998;4.502;2023-04-03T04:20:05;8.45;;;3.40;;
37091;SDS011;23005;51.998;4.502;2023-04-03T04:21:26;8.38;;;3.10;;
37091;SDS011;23005;51.998;4.502;2023-04-03T04:22:47;6.07;;;3.03;;
37091;SDS011;23005;51.998;4.502;2023-04-03T04:24:08;7.57;;;3.00;;
37091;SDS011;23005;51.998;4.502;2023-04-03T04:25:28;5.35;;;3.10;;
37091;SDS011;23005;51.998;4.502;2023-04-03T04:26:49;6.80;;;2.95;;
37091;SDS011;23005;51.998;4.502;2023-04-03T04:28:10;7.40;;;3.20;;
37091;SDS011;23005;51.998;4.502;2023-04-03T04:29:32;5.90;;;3.33;;
37091;SDS011;23005;51.998;4.502;2023-04-03T04:30:52;9.80;;;2.85;;
37091;SDS011;23005;51.998;4.502;2023-04-03T04:32:13;12.25;;;3.65;;
37091;SDS011;23005;51.998;4.502;2023-04-03T04:35:00;8.30;;;2.95;;
37091;SDS011;23005;51.998;4.502;2023-04-03T04:36:21;6.72;;;3.15;;
37091;SDS011;23005;51.998;4.502;2023-04-03T04:37:42;11.00;;;3.73;;
37091;SDS011;23005;51.998;4.502;2023-04-03T04:39:02;6.43;;;3.03;;
37091;SDS011;23005;51.998;4.502;2023-04-03T04:40:23;9.50;;;3.85;;
37091;SDS011;23005;51.998;4.502;2023-04-03T04:41:44;9.02;;;3.42;;
37091;SDS011;23005;51.998;4.502;2023-04-03T04:43:04;5.05;;;2.97;;
37091;SDS011;23005;51.998;4.502;2023-04-03T04:44:25;9.05;;;3.58;;
37091;SDS011;23005;51.998;4.502;2023-04-03T04:45:48;10.27;;;3.65;;
37091;SDS011;23005;51.998;4.502;2023-04-03T04:47:08;7.97;;;3.33;;
37091;SDS011;23005;51.998;4.502;2023-04-03T04:48:29;9.68;;;3.45;;
37091;SDS011;23005;51.998;4.502;2023-04-03T04:49:51;7.63;;;3.28;;
37091;SDS011;23005;51.998;4.502;2023-04-03T04:51:12;8.60;;;3.37;;
37091;SDS011;23005;51.998;4.502;2023-04-03T04:52:32;6.80;;;3.67;;
37091;SDS011;23005;51.998;4.502;2023-04-03T04:53:53;6.77;;;3.07;;
37091;SDS011;23005;51.998;4.502;2023-04-03T04:56:13;10.45;;;3.75;;
37091;SDS011;23005;51.998;4.502;2023-04-03T04:57:33;7.22;;;3.28;;
37091;SDS011;23005;51.998;4.502;2023-04-03T04:58:54;8.75;;;3.35;;
37091;SDS011;23005;51.998;4.502;2023-04-03T05:00:15;8.38;;;3.25;;
37091;SDS011;23005;51.998;4.502;2023-04-03T05:01:38;9.15;;;3.30;;
37091;SDS011;23005;51.998;4.502;2023-04-03T05:02:58;8.60;;;3.35;;
37091;SDS011;23005;51.998;4.502;2023-04-03T05:04:21;12.02;;;4.28;;
37091;SDS011;23005;51.998;4.502;2023-04-03T05:05:42;7.82;;;3.65;;
37091;SDS011;23005;51.998;4.502;2023-04-03T05:07:06;8.30;;;3.60;;
37091;SDS011;23005;51.998;4.502;2023-04-03T05:08:26;12.50;;;4.30;;
37091;SDS011;23005;51.998;4.502;2023-04-03T05:09:47;9.13;;;3.50;;
37091;SDS011;23005;51.998;4.502;2023-04-03T05:11:08;9.07;;;3.75;;
37091;SDS011;23005;51.998;4.502;2023-04-03T05:18:20;12.18;;;3.80;;
37091;SDS011;23005;51.998;4.502;2023-04-03T05:19:43;8.70;;;3.85;;
37091;SDS011;23005;51.998;4.502;2023-04-03T05:21:05;9.35;;;3.97;;
37091;SDS011;23005;51.998;4.502;2023-04-03T05:22:29;10.68;;;3.80;;
37091;SDS011;23005;51.998;4.502;2023-04-03T05:23:54;12.80;;;3.55;;
37091;SDS011;23005;51.998;4.502;2023-04-03T05:25:18;9.05;;;3.88;;
37091;SDS011;23005;51.998;4.502;2023-04-03T05:26:41;8.75;;;3.60;;
37091;SDS011;23005;51.998;4.502;2023-04-03T05:28:03;7.70;;;3.75;;
37091;SDS011;23005;51.998;4.502;2023-04-03T05:29:24;9.63;;;4.40;;
37091;SDS011;23005;51.998;4.502;2023-04-03T05:30:44;8.40;;;3.95;;
37091;SDS011;23005;51.998;4.502;2023-04-03T05:32:05;11.97;;;4.20;;
37091;SDS011;23005;51.998;4.502;2023-04-03T05:33:27;10.90;;;4.47;;
37091;SDS011;23005;51.998;4.502;2023-04-03T05:34:50;17.50;;;3.80;;
37091;SDS011;23005;51.998;4.502;2023-04-03T05:37:31;10.20;;;4.05;;
37091;SDS011;23005;51.998;4.502;2023-04-03T05:38:52;14.32;;;4.32;;
37091;SDS011;23005;51.998;4.502;2023-04-03T05:40:13;13.77;;;4.53;;
37091;SDS011;23005;51.998;4.502;2023-04-03T05:41:36;15.50;;;4.47;;
37091;SDS011;23005;51.998;4.502;2023-04-03T05:42:57;9.93;;;4.07;;
37091;SDS011;23005;51.998;4.502;2023-04-03T05:44:18;10.63;;;4.53;;
37091;SDS011;23005;51.998;4.502;2023-04-03T05:45:38;13.20;;;4.65;;
37091;SDS011;23005;51.998;4.502;2023-04-03T05:46:59;11.65;;;3.75;;
37091;SDS011;23005;51.998;4.502;2023-04-03T05:48:20;9.00;;;4.28;;
37091;SDS011;23005;51.998;4.502;2023-04-03T05:49:42;8.95;;;3.60;;
37091;SDS011;23005;51.998;4.502;2023-04-03T05:51:03;7.63;;;3.85;;
37091;SDS011;23005;51.998;4.502;2023-04-03T05:52:26;8.48;;;3.80;;
37091;SDS011;23005;51.998;4.502;2023-04-03T05:53:47;9.07;;;3.60;;
37091;SDS011;23005;51.998;4.502;2023-04-03T05:55:08;9.13;;;3.85;;
37091;SDS011;23005;51.998;4.502;2023-04-03T05:56:29;12.63;;;4.38;;
37091;SDS011;23005;51.998;4.502;2023-04-03T05:57:49;9.25;;;3.88;;
37091;SDS011;23005;51.998;4.502;2023-04-03T05:59:10;12.32;;;3.60;;
37091;SDS011;23005;51.998;4.502;2023-04-03T06:00:31;9.93;;;3.78;;
37091;SDS011;23005;51.998;4.502;2023-04-03T06:01:52;9.25;;;3.97;;
37091;SDS011;23005;51.998;4.502;2023-04-03T06:03:12;16.27;;;4.70;;
37091;SDS011;23005;51.998;4.502;2023-04-03T06:04:33;9.00;;;4.05;;
37091;SDS011;23005;51.998;4.502;2023-04-03T06:05:55;9.38;;;4.25;;
37091;SDS011;23005;51.998;4.502;2023-04-03T06:07:16;11.65;;;4.10;;
37091;SDS011;23005;51.998;4.502;2023-04-03T06:08:37;9.20;;;3.92;;
37091;SDS011;23005;51.998;4.502;2023-04-03T06:09:58;11.93;;;3.83;;
37091;SDS011;23005;51.998;4.502;2023-04-03T06:11:24;12.48;;;4.00;;
37091;SDS011;23005;51.998;4.502;2023-04-03T06:12:45;12.50;;;4.07;;
37091;SDS011;23005;51.998;4.502;2023-04-03T06:14:06;7.40;;;3.70;;
37091;SDS011;23005;51.998;4.502;2023-04-03T06:15:27;7.68;;;3.67;;
37091;SDS011;23005;51.998;4.502;2023-04-03T06:16:48;7.80;;;3.90;;
37091;SDS011;23005;51.998;4.502;2023-04-03T06:18:09;9.60;;;4.35;;
37091;SDS011;23005;51.998;4.502;2023-04-03T06:19:30;9.85;;;4.43;;
37091;SDS011;23005;51.998;4.502;2023-04-03T06:20:50;9.70;;;4.40;;
37091;SDS011;23005;51.998;4.502;2023-04-03T06:22:13;11.00;;;4.35;;
37091;SDS011;23005;51.998;4.502;2023-04-03T06:23:34;12.77;;;4.43;;
37091;SDS011;23005;51.998;4.502;2023-04-03T06:24:54;12.63;;;4.40;;
37091;SDS011;23005;51.998;4.502;2023-04-03T06:26:15;7.75;;;3.90;;
37091;SDS011;23005;51.998;4.502;2023-04-03T06:27:36;12.00;;;4.07;;
37091;SDS011;23005;51.998;4.502;2023-04-03T06:28:56;13.35;;;4.38;;
37091;SDS011;23005;51.998;4.502;2023-04-03T06:30:17;10.82;;;4.15;;
37091;SDS011;23005;51.998;4.502;2023-04-03T06:31:38;11.93;;;3.83;;
37091;SDS011;23005;51.998;4.502;2023-04-03T06:32:58;11.10;;;4.30;;
37091;SDS011;23005;51.998;4.502;2023-04-03T06:34:19;11.77;;;4.07;;
37091;SDS011;23005;51.998;4.502;2023-04-03T06:35:40;12.73;;;4.07;;
37091;SDS011;23005;51.998;4.502;2023-04-03T06:37:01;10.82;;;4.30;;
37091;SDS011;23005;51.998;4.502;2023-04-03T06:38:23;16.23;;;4.43;;
37091;SDS011;23005;51.998;4.502;2023-04-03T06:39:44;11.10;;;3.55;;
37091;SDS011;23005;51.998;4.502;2023-04-03T06:41:04;7.35;;;3.35;;
37091;SDS011;23005;51.998;4.502;2023-04-03T06:42:25;11.65;;;3.75;;
37091;SDS011;23005;51.998;4.502;2023-04-03T06:43:46;8.85;;;3.60;;
37091;SDS011;23005;51.998;4.502;2023-04-03T06:45:07;9.30;;;3.38;;
37091;SDS011;23005;51.998;4.502;2023-04-03T06:46:29;13.48;;;3.97;;
37091;SDS011;23005;51.998;4.502;2023-04-03T06:47:51;11.18;;;3.78;;
37091;SDS011;23005;51.998;4.502;2023-04-03T06:49:13;11.13;;;3.63;;
37091;SDS011;23005;51.998;4.502;2023-04-03T06:50:34;14.50;;;4.47;;
37091;SDS011;23005;51.998;4.502;2023-04-03T06:51:54;11.75;;;3.50;;
37091;SDS011;23005;51.998;4.502;2023-04-03T06:53:15;9.70;;;3.67;;
37091;SDS011;23005;51.998;4.502;2023-04-03T06:54:37;13.38;;;3.50;;
37091;SDS011;23005;51.998;4.502;2023-04-03T06:55:58;11.50;;;3.75;;
37091;SDS011;23005;51.998;4.502;2023-04-03T06:57:19;11.02;;;3.45;;
37091;SDS011;23005;51.998;4.502;2023-04-03T06:58:40;9.43;;;3.55;;
37091;SDS011;23005;51.998;4.502;2023-04-03T07:00:00;11.13;;;3.30;;
37091;SDS011;23005;51.998;4.502;2023-04-03T07:01:23;11.38;;;3.50;;
37091;SDS011;23005;51.998;4.502;2023-04-03T07:02:44;10.70;;;3.42;;
37091;SDS011;23005;51.998;4.502;2023-04-03T07:04:05;14.82;;;4.15;;
37091;SDS011;23005;51.998;4.502;2023-04-03T07:05:26;10.00;;;3.57;;
37091;SDS011;23005;51.998;4.502;2023-04-03T07:06:47;8.88;;;3.15;;
37091;SDS011;23005;51.998;4.502;2023-04-03T07:08:08;13.43;;;3.63;;
37091;SDS011;23005;51.998;4.502;2023-04-03T07:09:28;13.35;;;3.70;;
37091;SDS011;23005;51.998;4.502;2023-04-03T07:10:50;13.07;;;3.97;;
37091;SDS011;23005;51.998;4.502;2023-04-03T07:12:11;11.52;;;3.55;;
37091;SDS011;23005;51.998;4.502;2023-04-03T07:13:32;9.60;;;3.42;;
37091;SDS011;23005;51.998;4.502;2023-04-03T07:14:53;11.95;;;3.00;;
37091;SDS011;23005;51.998;4.502;2023-04-03T07:16:14;8.68;;;3.78;;
37091;SDS011;23005;51.998;4.502;2023-04-03T07:17:34;18.90;;;3.80;;
37091;SDS011;23005;51.998;4.502;2023-04-03T07:18:55;10.73;;;3.38;;
37091;SDS011;23005;51.998;4.502;2023-04-03T07:20:16;8.30;;;3.47;;
37091;SDS011;23005;51.998;4.502;2023-04-03T07:21:37;11.53;;;3.60;;
37091;SDS011;23005;51.998;4.502;2023-04-03T07:22:58;11.05;;;3.70;;
37091;SDS011;23005;51.998;4.502;2023-04-03T07:24:21;10.30;;;3.50;;
37091;SDS011;23005;51.998;4.502;2023-04-03T07:25:42;10.45;;;3.25;;
37091;SDS011;23005;51.998;4.502;2023-04-03T07:27:04;10.48;;;3.03;;
37091;SDS011;23005;51.998;4.502;2023-04-03T07:28:25;11.07;;;3.55;;
37091;SDS011;23005;51.998;4.502;2023-04-03T07:29:46;9.48;;;3.38;;
37091;SDS011;23005;51.998;4.502;2023-04-03T07:31:08;14.75;;;3.53;;
37091;SDS011;23005;51.998;4.502;2023-04-03T07:32:31;13.18;;;3.60;;
37091;SDS011;23005;51.998;4.502;2023-04-03T07:33:52;15.13;;;3.88;;
37091;SDS011;23005;51.998;4.502;2023-04-03T07:35:12;12.07;;;3.22;;
37091;SDS011;23005;51.998;4.502;2023-04-03T07:36:33;10.17;;;2.83;;
37091;SDS011;23005;51.998;4.502;2023-04-03T07:37:54;16.17;;;3.88;;
37091;SDS011;23005;51.998;4.502;2023-04-03T07:39:14;17.40;;;3.90;;
37091;SDS011;23005;51.998;4.502;2023-04-03T07:40:35;12.13;;;3.47;;
37091;SDS011;23005;51.998;4.502;2023-04-03T07:41:56;10.10;;;3.20;;
37091;SDS011;23005;51.998;4.502;2023-04-03T07:43:18;9.65;;;3.15;;
37091;SDS011;23005;51.998;4.502;2023-04-03T07:44:40;14.10;;;3.63;;
37091;SDS011;23005;51.998;4.502;2023-04-03T07:46:00;13.57;;;3.45;;
37091;SDS011;23005;51.998;4.502;2023-04-03T07:47:21;16.02;;;3.25;;
37091;SDS011;23005;51.998;4.502;2023-04-03T07:48:42;9.48;;;3.40;;
37091;SDS011;23005;51.998;4.502;2023-04-03T07:50:03;12.20;;;3.95;;
37091;SDS011;23005;51.998;4.502;2023-04-03T07:51:24;13.82;;;3.38;;
37091;SDS011;23005;51.998;4.502;2023-04-03T07:52:45;13.13;;;3.70;;
37091;SDS011;23005;51.998;4.502;2023-04-03T07:54:06;14.10;;;4.85;;
37091;SDS011;23005;51.998;4.502;2023-04-03T07:55:27;10.85;;;3.60;;
37091;SDS011;23005;51.998;4.502;2023-04-03T07:56:48;12.93;;;3.20;;
37091;SDS011;23005;51.998;4.502;2023-04-03T07:58:09;8.00;;;3.28;;
37091;SDS011;23005;51.998;4.502;2023-04-03T07:59:32;12.07;;;3.58;;
37091;SDS011;23005;51.998;4.502;2023-04-03T08:00:52;10.65;;;3.40;;
37091;SDS011;23005;51.998;4.502;2023-04-03T08:02:13;12.02;;;3.25;;
37091;SDS011;23005;51.998;4.502;2023-04-03T08:03:34;19.77;;;4.50;;
37091;SDS011;23005;51.998;4.502;2023-04-03T08:04:54;10.88;;;3.10;;
37091;SDS011;23005;51.998;4.502;2023-04-03T08:06:16;11.68;;;2.90;;
37091;SDS011;23005;51.998;4.502;2023-04-03T08:07:45;9.95;;;3.33;;
37091;SDS011;23005;51.998;4.502;2023-04-03T08:09:05;10.85;;;3.03;;
37091;SDS011;23005;51.998;4.502;2023-04-03T08:10:26;10.23;;;3.45;;
37091;SDS011;23005;51.998;4.502;2023-04-03T08:11:47;6.93;;;2.72;;
37091;SDS011;23005;51.998;4.502;2023-04-03T08:13:08;12.47;;;3.00;;
37091;SDS011;23005;51.998;4.502;2023-04-03T08:14:31;10.20;;;3.28;;
37091;SDS011;23005;51.998;4.502;2023-04-03T08:15:52;11.98;;;3.50;;
37091;SDS011;23005;51.998;4.502;2023-04-03T08:17:13;10.63;;;3.00;;
37091;SDS011;23005;51.998;4.502;2023-04-03T08:18:34;10.48;;;2.92;;
37091;SDS011;23005;51.998;4.502;2023-04-03T08:19:54;16.15;;;3.45;;
37091;SDS011;23005;51.998;4.502;2023-04-03T08:21:15;12.48;;;3.20;;
37091;SDS011;23005;51.998;4.502;2023-04-03T08:22:36;8.75;;;2.90;;
37091;SDS011;23005;51.998;4.502;2023-04-03T08:23:57;11.30;;;3.00;;
37091;SDS011;23005;51.998;4.502;2023-04-03T08:25:17;14.97;;;3.43;;